AUTO METAR SSNG 221730Z 21003KT FEW069 40/24 Q1007